Time;durP1;ratioP1;P1;durP2;ratioP2;P2;SDS_P1;SDS_P2;PMS_P1;PMS_P2;Temp;Humidity;BMP_temperature;BMP_pressure;BME280_temperature;BME280_humidity;BME280_pressure;Samples;Min_cycle;Max_cycle;Signal;HPM_P1;HPM_P2
2023/06/07 00:01:44;;;;;;;1.88;1.20;;;12.50;56.30;;;;;;5071949;28;20182;-50
2023/06/07 00:04:15;;;;;;;3.28;1.30;;;12.50;56.30;;;;;;5070939;28;20195;-52
2023/06/07 00:06:45;;;;;;;3.00;1.00;;;12.60;56.40;;;;;;5071083;28;20201;-53
2023/06/07 00:09:16;;;;;;;1.55;1.20;;;12.60;56.40;;;;;;5071024;28;20202;-52
2023/06/07 00:11:47;;;;;;;1.73;1.10;;;12.60;56.40;;;;;;5071000;28;20195;-51
2023/06/07 00:14:19;;;;;;;1.77;1.30;;;12.60;56.50;;;;;;5071058;28;20227;-52
2023/06/07 00:16:52;;;;;;;1.48;1.00;;;12.70;56.60;;;;;;5071241;28;20206;-54
2023/06/07 00:19:25;;;;;;;1.80;1.25;;;12.70;56.60;;;;;;5071076;28;20202;-52
2023/06/07 00:21:55;;;;;;;2.67;1.23;;;12.70;56.60;;;;;;5070954;28;20195;-54
2023/06/07 00:24:26;;;;;;;1.45;1.17;;;12.70;56.70;;;;;;5073558;28;20706;-52
2023/06/07 00:26:57;;;;;;;1.40;1.20;;;12.70;56.70;;;;;;5076326;28;20198;-52
2023/06/07 00:29:29;;;;;;;1.70;1.15;;;12.70;56.80;;;;;;5091437;28;20198;-50
2023/06/07 00:32:02;;;;;;;1.30;1.08;;;12.80;56.70;;;;;;5091076;28;20198;-54
2023/06/07 00:34:32;;;;;;;1.40;1.10;;;12.80;56.70;;;;;;5090819;28;20245;-54
2023/06/07 00:37:03;;;;;;;1.20;1.10;;;12.80;56.70;;;;;;5090876;28;20194;-55
2023/06/07 00:39:34;;;;;;;1.73;1.30;;;12.80;56.60;;;;;;5090809;28;20198;-53
2023/06/07 00:42:05;;;;;;;1.23;1.13;;;12.80;56.60;;;;;;5094058;28;20198;-48
2023/06/07 00:44:37;;;;;;;1.35;1.10;;;12.90;56.60;;;;;;5094528;28;20214;-56
2023/06/07 00:47:09;;;;;;;2.42;1.15;;;12.90;56.60;;;;;;5095056;28;20272;-54
2023/06/07 00:49:40;;;;;;;2.35;1.20;;;12.90;56.60;;;;;;5094314;28;20548;-54
2023/06/07 00:52:11;;;;;;;1.63;1.10;;;12.90;56.60;;;;;;5094195;28;20194;-55
2023/06/07 00:54:42;;;;;;;1.30;0.90;;;12.90;56.60;;;;;;5094386;28;20237;-53
2023/06/07 00:57:15;;;;;;;1.40;0.82;;;13.00;56.60;;;;;;5087202;28;20206;-53
2023/06/07 00:59:48;;;;;;;1.05;0.95;;;13.00;56.70;;;;;;5074114;28;20199;-52
2023/06/07 01:02:18;;;;;;;1.30;1.00;;;13.00;56.70;;;;;;5074030;28;20214;-53
2023/06/07 01:04:49;;;;;;;1.88;1.02;;;13.00;56.70;;;;;;5073811;28;20222;-55
2023/06/07 01:07:24;;;;;;;1.30;1.20;;;13.00;56.70;;;;;;5073594;28;20255;-55
2023/06/07 01:09:56;;;;;;;1.25;0.98;;;13.00;56.70;;;;;;5073956;28;20194;-54
2023/06/07 01:12:27;;;;;;;1.33;1.00;;;13.10;56.70;;;;;;5074121;28;20198;-55
2023/06/07 01:15:00;;;;;;;1.35;1.23;;;13.10;56.70;;;;;;5084704;28;20214;-54
2023/06/07 01:17:32;;;;;;;1.00;0.90;;;13.10;56.70;;;;;;5094092;28;20198;-54
2023/06/07 01:20:04;;;;;;;1.63;1.00;;;13.20;56.80;;;;;;5093877;28;20244;-50
2023/06/07 01:22:37;;;;;;;1.92;1.33;;;13.20;56.70;;;;;;5093653;28;20198;-55
2023/06/07 01:25:10;;;;;;;2.15;1.20;;;13.20;56.60;;;;;;5093559;28;20237;-54
2023/06/07 01:27:43;;;;;;;1.33;1.10;;;13.20;56.60;;;;;;5082258;28;20225;-51
2023/06/07 01:30:15;;;;;;;1.75;1.00;;;13.20;57.20;;;;;;5073801;28;20194;-55
2023/06/07 01:32:47;;;;;;;1.25;1.00;;;13.30;56.70;;;;;;5073952;28;20199;-53
2023/06/07 01:35:18;;;;;;;1.65;1.23;;;13.30;56.60;;;;;;5084287;28;20590;-53
2023/06/07 01:37:49;;;;;;;1.45;1.17;;;13.30;56.70;;;;;;5093459;28;20205;-52
2023/06/07 01:40:23;;;;;;;1.27;1.00;;;13.30;56.70;;;;;;5093553;28;20225;-52
2023/06/07 01:42:56;;;;;;;1.35;1.10;;;13.30;56.60;;;;;;5092931;28;20189;-53
2023/06/07 01:45:27;;;;;;;1.50;1.00;;;13.40;56.70;;;;;;5093342;28;20214;-56
2023/06/07 01:47:58;;;;;;;1.30;1.20;;;13.40;56.80;;;;;;5093782;28;20559;-54
2023/06/07 01:50:28;;;;;;;1.15;1.00;;;13.40;56.70;;;;;;5093172;28;20194;-53
2023/06/07 01:52:59;;;;;;;1.88;1.10;;;13.40;56.70;;;;;;5092589;28;20291;-52
2023/06/07 01:55:32;;;;;;;1.27;1.00;;;13.50;56.70;;;;;;5093076;28;20233;-53
2023/06/07 01:58:14;;;;;;;1.30;1.20;;;13.50;56.70;;;;;;5089932;28;20277;-55
2023/06/07 02:00:59;;;;;;;1.45;1.10;;;13.50;56.70;;;;;;5093485;28;20666;-51
2023/06/07 02:03:35;;;;;;;2.10;1.20;;;13.50;56.70;;;;;;5093526;28;20190;-50
2023/06/07 02:06:08;;;;;;;1.45;1.00;;;13.60;56.70;;;;;;5092836;28;20217;-56
2023/06/07 02:08:44;;;;;;;1.40;1.00;;;13.60;56.70;;;;;;5092544;28;20198;-49
2023/06/07 02:11:18;;;;;;;1.10;0.80;;;13.60;56.70;;;;;;5093153;28;20212;-51
2023/06/07 02:13:52;;;;;;;1.42;1.00;;;13.60;56.70;;;;;;5093112;28;20202;-53
2023/06/07 02:16:35;;;;;;;1.45;0.90;;;13.70;56.70;;;;;;5092896;28;20218;-53
2023/06/07 02:19:07;;;;;;;1.77;0.90;;;13.70;56.80;;;;;;5092593;28;20194;-52
2023/06/07 02:21:38;;;;;;;1.35;1.00;;;13.70;56.70;;;;;;5092586;28;20229;-55
2023/06/07 02:24:10;;;;;;;1.13;1.02;;;13.80;56.70;;;;;;5092625;28;20198;-50
2023/06/07 02:26:42;;;;;;;1.50;1.10;;;13.80;56.70;;;;;;5093236;28;20202;-52
2023/06/07 02:29:13;;;;;;;1.00;0.82;;;13.80;56.70;;;;;;5092621;28;20201;-50
2023/06/07 02:31:45;;;;;;;1.00;0.82;;;13.80;56.70;;;;;;5084404;28;20183;-53
2023/06/07 02:34:16;;;;;;;1.27;0.88;;;13.90;56.80;;;;;;5071915;28;20215;-55
2023/06/07 02:36:46;;;;;;;0.95;0.80;;;13.90;56.80;;;;;;5072358;28;20198;-54
2023/06/07 02:39:18;;;;;;;1.05;0.80;;;13.90;56.80;;;;;;5072195;28;20201;-56
2023/06/07 02:41:50;;;;;;;2.38;1.00;;;14.00;56.80;;;;;;5071765;28;20297;-53
2023/06/07 02:44:21;;;;;;;1.65;0.98;;;14.00;56.80;;;;;;5071820;28;20222;-56
2023/06/07 02:46:51;;;;;;;1.15;0.90;;;14.00;56.80;;;;;;5072001;28;20681;-55
2023/06/07 02:49:22;;;;;;;1.23;1.00;;;14.00;56.80;;;;;;5085750;28;20190;-52
2023/06/07 02:51:52;;;;;;;1.45;1.23;;;14.10;56.90;;;;;;5092745;28;20774;-54
2023/06/07 02:54:23;;;;;;;2.17;0.90;;;14.10;56.80;;;;;;5091953;28;20225;-53
2023/06/07 02:56:56;;;;;;;0.88;0.88;;;14.20;56.80;;;;;;5087229;28;20248;-56
2023/06/07 02:59:26;;;;;;;0.93;0.82;;;14.20;56.80;;;;;;5072062;28;20205;-55
2023/06/07 03:01:57;;;;;;;0.95;0.70;;;14.20;56.80;;;;;;5071866;28;20198;-54
2023/06/07 03:04:28;;;;;;;0.80;0.80;;;14.30;56.80;;;;;;5071137;28;20218;-54
2023/06/07 03:06:59;;;;;;;1.52;1.00;;;14.30;56.70;;;;;;5071571;28;20248;-55
2023/06/07 03:09:29;;;;;;;1.60;0.95;;;14.40;56.80;;;;;;5071513;28;20195;-54
2023/06/07 03:12:02;;;;;;;0.80;0.80;;;14.40;56.70;;;;;;5081699;28;20194;-50
2023/06/07 03:14:32;;;;;;;1.27;0.98;;;14.40;56.70;;;;;;5091246;28;20229;-54
2023/06/07 03:17:04;;;;;;;1.20;0.82;;;14.50;56.70;;;;;;5091882;28;20259;-54
2023/06/07 03:19:34;;;;;;;0.82;0.82;;;14.50;56.60;;;;;;5091742;28;20285;-50
2023/06/07 03:22:06;;;;;;;1.38;1.00;;;14.50;56.60;;;;;;5091526;28;20201;-48
2023/06/07 03:24:40;;;;;;;0.90;0.90;;;14.50;56.60;;;;;;5091473;28;20225;-52
2023/06/07 03:27:13;;;;;;;0.73;0.73;;;14.50;56.60;;;;;;5084428;28;20202;-50
2023/06/07 03:29:43;;;;;;;2.28;0.98;;;14.60;56.60;;;;;;5071106;28;20194;-53
2023/06/07 03:32:14;;;;;;;1.33;0.80;;;14.60;56.60;;;;;;5070929;28;20199;-56
2023/06/07 03:34:44;;;;;;;0.70;0.70;;;14.70;56.60;;;;;;5087313;28;20210;-51
2023/06/07 03:37:16;;;;;;;0.77;0.63;;;14.70;56.60;;;;;;5091740;28;20194;-51
2023/06/07 03:39:47;;;;;;;0.93;0.75;;;14.70;56.60;;;;;;5091784;28;20587;-53
2023/06/07 03:42:19;;;;;;;1.10;1.00;;;14.80;56.60;;;;;;5091731;28;20669;-55
2023/06/07 03:44:50;;;;;;;1.27;1.08;;;14.80;56.50;;;;;;5091199;28;20222;-54
2023/06/07 03:47:20;;;;;;;1.15;0.70;;;14.80;56.40;;;;;;5091132;28;20585;-54
2023/06/07 03:49:51;;;;;;;0.90;0.70;;;14.80;56.40;;;;;;5091190;28;20204;-56
2023/06/07 03:52:22;;;;;;;1.00;0.90;;;14.90;56.40;;;;;;5091210;28;20936;-50
2023/06/07 03:54:52;;;;;;;0.80;0.80;;;14.90;56.30;;;;;;5091573;28;20240;-53
2023/06/07 03:57:25;;;;;;;1.02;0.90;;;14.90;56.30;;;;;;5087210;28;20198;-54
2023/06/07 03:59:56;;;;;;;1.10;1.02;;;15.00;56.40;;;;;;5091520;28;20205;-51
2023/06/07 04:02:27;;;;;;;1.10;0.90;;;15.00;56.30;;;;;;5091665;28;20204;-55
2023/06/07 04:04:58;;;;;;;0.80;0.70;;;15.10;56.30;;;;;;5091442;28;20229;-51
2023/06/07 04:07:29;;;;;;;1.13;1.02;;;15.10;56.30;;;;;;5091330;28;20661;-52
2023/06/07 04:09:59;;;;;;;1.08;0.90;;;15.20;56.30;;;;;;5091352;28;20230;-51
2023/06/07 04:12:32;;;;;;;1.58;1.10;;;15.10;56.20;;;;;;5091238;28;20198;-55
2023/06/07 04:15:02;;;;;;;0.80;0.80;;;15.20;56.10;;;;;;5093095;28;20240;-51
2023/06/07 04:17:33;;;;;;;1.20;1.10;;;15.20;56.10;;;;;;5095078;28;20194;-49
2023/06/07 04:20:04;;;;;;;1.23;1.10;;;15.30;56.20;;;;;;5095180;28;20202;-51
2023/06/07 04:22:35;;;;;;;1.05;0.98;;;15.30;56.10;;;;;;5095216;28;20201;-52
2023/06/07 04:25:06;;;;;;;1.20;1.10;;;15.30;56.10;;;;;;5095059;28;20216;-53
2023/06/07 04:27:40;;;;;;;1.10;1.00;;;15.30;56.00;;;;;;5094613;28;20198;-51
2023/06/07 04:30:11;;;;;;;1.08;0.98;;;15.40;56.00;;;;;;5078876;28;20773;-55
2023/06/07 04:32:43;;;;;;;1.35;1.20;;;15.40;55.90;;;;;;5074360;28;20207;-54
2023/06/07 04:35:14;;;;;;;0.93;0.88;;;15.40;55.90;;;;;;5074427;28;20226;-54
2023/06/07 04:37:45;;;;;;;1.08;0.95;;;15.50;55.90;;;;;;5074399;28;20199;-53
2023/06/07 04:40:16;;;;;;;1.20;1.10;;;15.50;55.90;;;;;;5074240;28;20234;-55
2023/06/07 04:43:04;;;;;;;2.28;0.98;;;15.50;55.80;;;;;;5074235;28;20199;-52
2023/06/07 04:45:36;;;;;;;1.45;0.90;;;15.50;55.80;;;;;;5074256;28;20210;-52
2023/06/07 04:48:07;;;;;;;0.82;0.82;;;15.50;55.70;;;;;;5074204;28;20241;-53
2023/06/07 04:50:41;;;;;;;1.08;0.98;;;15.50;55.70;;;;;;5074113;28;20195;-52
2023/06/07 04:53:11;;;;;;;1.00;0.90;;;15.50;55.70;;;;;;5073998;28;20214;-54
2023/06/07 04:55:42;;;;;;;1.17;1.08;;;15.50;55.70;;;;;;5073988;28;20250;-55
2023/06/07 04:58:16;;;;;;;1.17;0.95;;;15.50;55.60;;;;;;5089788;28;20198;-48
2023/06/07 05:00:47;;;;;;;1.30;1.00;;;15.50;55.60;;;;;;5094570;28;20194;-54
2023/06/07 05:03:21;;;;;;;1.33;1.15;;;15.50;55.60;;;;;;5094706;28;20235;-53
2023/06/07 05:05:52;;;;;;;1.20;1.10;;;15.50;55.60;;;;;;5094170;28;20740;-50
2023/06/07 05:08:23;;;;;;;1.33;1.20;;;15.50;55.50;;;;;;5093835;28;20685;-55
2023/06/07 05:10:53;;;;;;;1.38;1.25;;;15.50;55.40;;;;;;5093949;28;20197;-54
2023/06/07 05:13:26;;;;;;;1.10;1.00;;;15.50;55.40;;;;;;5094117;28;20194;-55
2023/06/07 05:15:57;;;;;;;1.30;1.20;;;15.50;55.40;;;;;;5094008;28;20681;-55
2023/06/07 05:18:28;;;;;;;1.48;1.20;;;15.50;55.40;;;;;;5094178;28;20209;-54
2023/06/07 05:20:58;;;;;;;1.17;1.08;;;15.50;55.30;;;;;;5093912;28;20653;-54
2023/06/07 05:23:29;;;;;;;1.20;1.10;;;15.40;55.20;;;;;;5093808;28;20198;-56
2023/06/07 05:25:59;;;;;;;1.05;0.95;;;15.40;55.20;;;;;;5093858;28;20223;-53
2023/06/07 05:28:32;;;;;;;1.20;1.10;;;15.40;55.20;;;;;;5075678;28;20236;-52
2023/06/07 05:31:03;;;;;;;1.35;1.23;;;15.40;55.20;;;;;;5091755;28;20198;-56
2023/06/07 05:33:33;;;;;;;1.13;1.00;;;15.40;55.10;;;;;;5093843;28;20190;-50
2023/06/07 05:36:04;;;;;;;1.40;1.10;;;15.40;55.10;;;;;;5093353;28;20225;-54
2023/06/07 05:38:35;;;;;;;1.20;1.10;;;15.40;55.20;;;;;;5093542;28;20217;-53
2023/06/07 05:41:06;;;;;;;2.30;1.10;;;15.40;55.10;;;;;;5093579;28;20221;-54
2023/06/07 05:43:38;;;;;;;1.20;1.10;;;15.30;55.10;;;;;;5093099;28;20195;-54
2023/06/07 05:46:09;;;;;;;1.45;1.35;;;15.40;55.10;;;;;;5093216;28;20686;-55
2023/06/07 05:48:39;;;;;;;1.48;1.10;;;15.30;55.10;;;;;;5093696;28;20280;-56
2023/06/07 05:51:10;;;;;;;1.33;1.00;;;15.30;55.10;;;;;;5093398;28;20205;-56
2023/06/07 05:53:41;;;;;;;1.75;1.20;;;15.30;55.10;;;;;;5093697;28;20194;-54
2023/06/07 05:56:16;;;;;;;1.40;1.30;;;15.30;55.00;;;;;;5093510;28;20230;-55
2023/06/07 05:58:50;;;;;;;1.25;1.10;;;15.30;55.00;;;;;;5073409;28;20198;-52
2023/06/07 06:01:21;;;;;;;1.20;1.10;;;15.30;54.90;;;;;;5073116;28;20773;-56
2023/06/07 06:03:51;;;;;;;1.15;1.05;;;15.20;54.90;;;;;;5075287;28;20191;-55
2023/06/07 06:06:22;;;;;;;1.02;0.93;;;15.20;54.90;;;;;;5073120;28;20211;-54
2023/06/07 06:08:53;;;;;;;1.30;1.20;;;15.20;54.80;;;;;;5073026;28;20195;-53
2023/06/07 06:11:23;;;;;;;1.20;1.10;;;15.10;54.70;;;;;;5072942;28;20198;-55
2023/06/07 06:13:56;;;;;;;1.35;1.23;;;15.10;54.70;;;;;;5073150;28;20561;-55
2023/06/07 06:16:26;;;;;;;1.40;1.27;;;15.10;54.70;;;;;;5073820;28;20233;-53
2023/06/07 06:18:57;;;;;;;1.25;1.15;;;15.10;54.70;;;;;;5073586;28;20673;-51
2023/06/07 06:21:28;;;;;;;1.30;1.20;;;15.10;54.70;;;;;;5085526;28;20297;-54
2023/06/07 06:23:59;;;;;;;1.35;1.00;;;15.10;54.70;;;;;;5082639;28;20205;-53
2023/06/07 06:26:29;;;;;;;1.13;1.02;;;15.10;54.70;;;;;;5091921;28;20264;-53
2023/06/07 06:29:02;;;;;;;1.45;1.30;;;15.10;54.60;;;;;;5074674;28;20601;-56
2023/06/07 06:31:32;;;;;;;1.50;1.40;;;15.00;54.60;;;;;;5071415;28;20782;-52
2023/06/07 06:34:03;;;;;;;2.05;1.30;;;15.00;54.60;;;;;;5071684;28;20859;-54
2023/06/07 06:36:34;;;;;;;1.80;1.30;;;15.00;54.60;;;;;;5071519;28;20230;-56
2023/06/07 06:39:05;;;;;;;1.63;1.15;;;14.90;54.50;;;;;;5070495;28;20199;-55
2023/06/07 06:41:36;;;;;;;1.15;1.08;;;14.90;54.60;;;;;;5071788;28;20191;-53
2023/06/07 06:44:09;;;;;;;1.33;1.13;;;14.90;54.50;;;;;;5071685;28;20743;-52
2023/06/07 06:46:39;;;;;;;1.50;1.23;;;14.90;54.50;;;;;;5071343;28;20202;-55
2023/06/07 06:49:10;;;;;;;1.45;1.35;;;14.90;54.50;;;;;;5072169;28;20198;-54
2023/06/07 06:51:41;;;;;;;1.27;1.17;;;14.90;54.50;;;;;;5072180;28;20198;-52
2023/06/07 06:54:11;;;;;;;1.70;1.33;;;14.80;54.40;;;;;;5079549;28;20205;-54
2023/06/07 06:56:42;;;;;;;1.75;1.30;;;14.80;54.40;;;;;;5088352;28;20229;-51
2023/06/07 06:59:14;;;;;;;1.63;1.50;;;14.80;54.40;;;;;;5080407;28;20201;-53
2023/06/07 07:01:49;;;;;;;2.15;1.42;;;14.80;54.30;;;;;;5082627;28;20199;-58
2023/06/07 07:04:19;;;;;;;1.60;1.48;;;14.80;54.30;;;;;;5071295;28;20198;-56
2023/06/07 07:06:50;;;;;;;2.05;1.58;;;14.70;54.30;;;;;;5090424;28;20201;-54
2023/06/07 07:09:21;;;;;;;1.70;1.60;;;14.70;54.30;;;;;;5091591;28;20201;-53
2023/06/07 07:11:51;;;;;;;1.67;1.45;;;14.70;54.30;;;;;;5091748;28;20190;-53
2023/06/07 07:14:24;;;;;;;2.28;1.58;;;14.70;54.30;;;;;;5091642;28;20229;-56
2023/06/07 07:16:55;;;;;;;1.88;1.58;;;14.70;54.30;;;;;;5090635;28;20291;-55
2023/06/07 07:19:26;;;;;;;1.65;1.55;;;14.60;54.30;;;;;;5091296;28;20208;-52
2023/06/07 07:21:56;;;;;;;1.60;1.48;;;14.60;54.30;;;;;;5091583;28;20693;-55
2023/06/07 07:24:27;;;;;;;1.67;1.40;;;14.60;54.30;;;;;;5091589;28;20228;-52
2023/06/07 07:26:58;;;;;;;1.80;1.67;;;14.60;54.30;;;;;;5091428;28;20202;-53
2023/06/07 07:29:30;;;;;;;2.85;1.48;;;14.50;54.30;;;;;;5092039;28;20198;-53
2023/06/07 07:32:01;;;;;;;1.90;1.50;;;14.50;54.30;;;;;;5091281;28;20194;-57
2023/06/07 07:34:31;;;;;;;1.73;1.63;;;14.50;54.30;;;;;;5091344;28;20217;-53
2023/06/07 07:37:04;;;;;;;1.90;1.77;;;14.50;54.30;;;;;;5091300;28;20229;-57
2023/06/07 07:39:34;;;;;;;1.50;1.40;;;14.50;54.30;;;;;;5091386;28;20202;-57
2023/06/07 07:42:05;;;;;;;2.60;1.50;;;14.50;54.20;;;;;;5091250;28;20556;-54
2023/06/07 07:44:39;;;;;;;1.70;1.60;;;14.50;54.20;;;;;;5090942;28;20214;-58
2023/06/07 07:47:10;;;;;;;1.92;1.70;;;14.40;54.10;;;;;;5090257;28;20225;-55
2023/06/07 07:49:41;;;;;;;1.95;1.50;;;14.40;54.20;;;;;;5091957;28;20710;-56
2023/06/07 07:52:12;;;;;;;1.85;1.65;;;14.40;54.10;;;;;;5095801;28;20194;-56
2023/06/07 07:54:42;;;;;;;1.55;1.45;;;14.40;54.20;;;;;;5095752;28;20300;-51
2023/06/07 07:57:13;;;;;;;1.60;1.38;;;14.40;54.20;;;;;;5095373;28;20236;-50
2023/06/07 07:59:46;;;;;;;1.70;1.60;;;14.30;54.10;;;;;;5095290;28;20213;-54
2023/06/07 08:02:16;;;;;;;1.48;1.38;;;14.30;54.10;;;;;;5094843;28;20576;-54
2023/06/07 08:04:47;;;;;;;1.75;1.30;;;14.30;54.20;;;;;;5094985;28;20263;-51
2023/06/07 08:07:17;;;;;;;1.80;1.60;;;14.30;54.20;;;;;;5095060;28;20206;-51
2023/06/07 08:09:48;;;;;;;1.63;1.52;;;14.20;54.10;;;;;;5090949;28;20205;-50
2023/06/07 08:12:19;;;;;;;1.55;1.45;;;14.20;54.10;;;;;;5074652;28;20199;-54
2023/06/07 08:14:52;;;;;;;1.90;1.60;;;14.20;54.20;;;;;;5074186;28;20256;-56
2023/06/07 08:17:23;;;;;;;1.60;1.50;;;14.20;54.20;;;;;;5074773;28;20587;-55
2023/06/07 08:19:54;;;;;;;1.73;1.50;;;14.20;54.20;;;;;;5074960;28;20569;-52
2023/06/07 08:22:25;;;;;;;1.58;1.48;;;14.20;54.20;;;;;;5073786;28;20203;-53
2023/06/07 08:24:55;;;;;;;1.80;1.50;;;14.20;54.20;;;;;;5074972;28;20224;-52
2023/06/07 08:27:26;;;;;;;1.73;1.55;;;14.20;54.20;;;;;;5084787;28;20202;-49
2023/06/07 08:29:58;;;;;;;1.70;1.55;;;14.20;54.20;;;;;;5086373;28;20210;-53
2023/06/07 08:32:29;;;;;;;1.65;1.45;;;14.10;54.10;;;;;;5095006;28;20198;-52
2023/06/07 08:34:59;;;;;;;2.00;1.80;;;14.10;54.20;;;;;;5094499;28;20685;-51
2023/06/07 08:37:30;;;;;;;2.08;1.80;;;14.10;54.20;;;;;;5086394;28;20234;-54
2023/06/07 08:40:01;;;;;;;1.80;1.58;;;14.10;54.20;;;;;;5074808;28;20203;-51
2023/06/07 08:42:31;;;;;;;1.90;1.70;;;14.10;54.20;;;;;;5094607;28;20194;-50
2023/06/07 08:45:04;;;;;;;2.70;1.83;;;14.00;54.20;;;;;;5082406;28;20225;-50
2023/06/07 08:47:39;;;;;;;2.85;1.92;;;14.00;54.10;;;;;;5073871;28;20252;-51
2023/06/07 08:50:14;;;;;;;2.55;2.03;;;14.00;54.20;;;;;;5081975;28;20194;-49
2023/06/07 08:52:50;;;;;;;2.08;1.83;;;14.00;54.20;;;;;;5094178;28;20190;-55
2023/06/07 08:55:21;;;;;;;2.00;1.80;;;14.00;54.20;;;;;;5094682;28;20218;-52
2023/06/07 08:57:52;;;;;;;2.15;1.95;;;13.90;54.20;;;;;;5094492;28;20723;-54
2023/06/07 09:00:28;;;;;;;1.80;1.55;;;13.90;54.20;;;;;;5092818;28;20568;-52
2023/06/07 09:02:59;;;;;;;2.50;1.95;;;13.90;54.20;;;;;;5092121;28;20190;-53
2023/06/07 09:05:30;;;;;;;2.63;2.03;;;13.90;54.20;;;;;;5093840;28;20210;-53
2023/06/07 09:08:02;;;;;;;2.28;2.00;;;13.90;54.30;;;;;;5093915;28;20202;-49
2023/06/07 09:10:33;;;;;;;2.38;1.85;;;13.90;54.30;;;;;;5093578;28;20650;-49
2023/06/07 09:13:04;;;;;;;2.42;1.90;;;13.90;54.20;;;;;;5093950;28;20202;-50
2023/06/07 09:15:37;;;;;;;2.33;1.90;;;13.80;54.20;;;;;;5093644;28;20217;-51
2023/06/07 09:18:08;;;;;;;2.13;1.90;;;13.80;54.20;;;;;;5094280;28;20230;-55
2023/06/07 09:20:39;;;;;;;2.42;2.03;;;13.80;54.20;;;;;;5093881;28;20584;-50
2023/06/07 09:23:13;;;;;;;3.45;1.95;;;13.80;54.20;;;;;;5093587;28;20194;-49
2023/06/07 09:25:45;;;;;;;1.98;1.77;;;13.80;54.20;;;;;;5092677;28;20681;-49
2023/06/07 09:28:16;;;;;;;1.90;1.70;;;13.80;54.20;;;;;;5093733;28;20201;-54
2023/06/07 09:30:59;;;;;;;2.50;2.08;;;13.70;54.20;;;;;;5093627;28;20187;-52
2023/06/07 09:33:30;;;;;;;2.17;1.85;;;13.70;54.20;;;;;;5093921;28;20202;-51
2023/06/07 09:36:08;;;;;;;1.80;1.70;;;13.70;54.20;;;;;;5093637;28;20245;-52
2023/06/07 09:38:39;;;;;;;2.25;1.70;;;13.70;54.30;;;;;;5093730;28;20205;-51
2023/06/07 09:41:10;;;;;;;2.05;1.80;;;13.70;54.30;;;;;;5093717;28;20194;-50
2023/06/07 09:43:50;;;;;;;2.17;1.77;;;13.60;54.20;;;;;;5093614;28;20194;-52
2023/06/07 09:46:23;;;;;;;2.03;1.83;;;13.60;54.20;;;;;;5093192;28;20214;-53
2023/06/07 09:48:54;;;;;;;2.53;2.15;;;13.60;54.20;;;;;;5093180;28;20731;-51
2023/06/07 09:51:27;;;;;;;2.08;1.70;;;13.60;54.20;;;;;;5093427;28;20206;-53
2023/06/07 09:54:01;;;;;;;2.63;1.73;;;13.60;54.30;;;;;;5094022;28;20273;-56
2023/06/07 09:56:31;;;;;;;2.35;2.00;;;13.60;54.20;;;;;;5091703;28;20558;-56
2023/06/07 09:59:12;;;;;;;2.17;1.98;;;13.60;54.20;;;;;;5073349;28;20206;-56
2023/06/07 10:01:46;;;;;;;1.92;1.73;;;13.60;54.30;;;;;;5073083;28;20233;-55
2023/06/07 10:04:16;;;;;;;2.20;2.00;;;13.50;54.20;;;;;;5073668;28;20233;-50
2023/06/07 10:06:49;;;;;;;2.72;1.90;;;13.50;54.20;;;;;;5072861;28;20467;-52
2023/06/07 10:09:22;;;;;;;2.38;2.17;;;13.50;54.20;;;;;;5072794;28;20249;-54
2023/06/07 10:11:57;;;;;;;2.65;1.80;;;13.50;54.80;;;;;;5072548;28;20198;-54
2023/06/07 10:14:33;;;;;;;2.67;1.90;;;13.50;54.20;;;;;;5072529;28;20774;-55
2023/06/07 10:17:08;;;;;;;2.65;1.98;;;13.50;54.20;;;;;;5072483;28;20222;-54
2023/06/07 10:19:43;;;;;;;2.50;2.20;;;13.40;54.10;;;;;;5072732;28;20658;-55
2023/06/07 10:22:17;;;;;;;2.15;1.80;;;13.40;54.10;;;;;;5072427;28;20185;-54
2023/06/07 10:24:55;;;;;;;3.50;2.08;;;13.40;54.20;;;;;;5072197;28;20624;-55
2023/06/07 10:27:28;;;;;;;1.73;1.63;;;13.40;54.20;;;;;;5071896;28;20238;-53
2023/06/07 10:30:08;;;;;;;2.17;1.92;;;13.40;54.20;;;;;;5072192;28;20194;-53
2023/06/07 10:32:41;;;;;;;2.45;2.03;;;13.40;54.20;;;;;;5072728;28;20203;-57
2023/06/07 10:35:13;;;;;;;2.17;1.98;;;13.40;54.20;;;;;;5072529;28;20321;-55
2023/06/07 10:37:44;;;;;;;2.83;1.95;;;13.40;54.20;;;;;;5072102;28;20223;-55
2023/06/07 10:40:16;;;;;;;2.42;1.80;;;13.30;54.10;;;;;;5072291;28;20206;-53
2023/06/07 10:42:47;;;;;;;1.90;1.70;;;13.30;54.20;;;;;;5072334;28;20808;-52
2023/06/07 10:45:21;;;;;;;2.45;1.85;;;13.30;54.10;;;;;;5072007;28;20214;-55
2023/06/07 10:47:53;;;;;;;2.58;1.75;;;13.30;54.10;;;;;;5072398;28;20202;-50
2023/06/07 10:50:56;;;;;;;2.50;1.63;;;13.30;54.20;;;;;;5072071;28;20203;-52
2023/06/07 10:53:51;;;;;;;1.98;1.70;;;13.30;54.20;;;;;;5012201;28;20208;-55
2023/06/07 10:56:32;;;;;;;2.42;2.20;;;13.20;54.10;;;;;;5028999;28;20304;-55
2023/06/07 10:59:24;;;;;;;2.22;1.85;;;13.20;54.10;;;;;;5055874;28;20194;-52
2023/06/07 11:01:55;;;;;;;2.20;1.92;;;13.20;54.10;;;;;;5071208;28;20567;-51
2023/06/07 11:04:56;;;;;;;2.15;1.80;;;13.20;54.10;;;;;;5090699;28;20253;-52
2023/06/07 11:07:30;;;;;;;1.77;1.60;;;13.20;54.20;;;;;;5092100;28;20200;-49
2023/06/07 11:10:36;;;;;;;2.03;1.77;;;13.20;54.10;;;;;;5091714;28;20309;-54
2023/06/07 11:13:07;;;;;;;1.95;1.75;;;13.20;54.20;;;;;;5091678;28;20201;-49
2023/06/07 11:15:38;;;;;;;1.98;1.60;;;13.20;54.20;;;;;;5092046;28;20218;-50
2023/06/07 11:18:09;;;;;;;2.97;2.28;;;13.20;54.20;;;;;;5091723;28;20229;-48
2023/06/07 11:20:55;;;;;;;2.17;1.67;;;13.10;54.10;;;;;;5091973;28;20251;-52
2023/06/07 11:23:29;;;;;;;2.67;1.73;;;13.10;54.10;;;;;;5091049;28;20193;-53
2023/06/07 11:26:02;;;;;;;2.00;1.80;;;13.10;54.10;;;;;;5090836;28;20213;-56
2023/06/07 11:28:33;;;;;;;2.00;1.80;;;13.10;54.10;;;;;;5090066;28;20232;-52
2023/06/07 11:31:04;;;;;;;2.25;1.73;;;13.10;54.10;;;;;;5091692;28;20276;-55
2023/06/07 11:33:35;;;;;;;2.58;2.00;;;13.10;54.10;;;;;;5091958;28;20205;-53
2023/06/07 11:36:09;;;;;;;2.35;1.80;;;13.00;54.10;;;;;;5091820;28;20225;-53
2023/06/07 11:38:40;;;;;;;2.00;1.80;;;13.00;54.10;;;;;;5091969;28;20222;-55
2023/06/07 11:41:10;;;;;;;2.90;1.80;;;13.00;54.10;;;;;;5091616;28;20205;-52
2023/06/07 11:43:41;;;;;;;2.78;2.03;;;13.00;54.10;;;;;;5091442;28;20670;-52
2023/06/07 11:46:16;;;;;;;1.88;1.60;;;13.00;54.10;;;;;;5091687;28;20222;-50
2023/06/07 11:48:47;;;;;;;2.60;2.13;;;13.00;54.10;;;;;;5091734;28;20270;-56
2023/06/07 11:51:20;;;;;;;2.03;1.83;;;13.00;54.10;;;;;;5091878;28;20194;-54
2023/06/07 11:53:58;;;;;;;2.05;1.77;;;13.00;54.10;;;;;;5091990;28;20580;-55
2023/06/07 11:56:30;;;;;;;2.30;1.80;;;13.00;54.10;;;;;;5089890;28;20198;-57
2023/06/07 11:59:01;;;;;;;3.47;2.05;;;12.90;54.20;;;;;;5071198;28;20717;-56
2023/06/07 12:01:33;;;;;;;2.28;1.92;;;12.90;54.10;;;;;;5071198;28;20194;-52
2023/06/07 12:04:03;;;;;;;2.30;1.75;;;12.90;54.10;;;;;;5071273;28;20289;-56
2023/06/07 12:06:36;;;;;;;1.77;1.60;;;12.90;54.10;;;;;;5071368;28;20198;-56
2023/06/07 12:09:14;;;;;;;1.88;1.67;;;12.90;54.20;;;;;;5071393;28;20203;-55
2023/06/07 12:11:45;;;;;;;3.30;2.00;;;12.90;54.10;;;;;;5073856;28;20191;-53
2023/06/07 12:14:30;;;;;;;2.60;2.10;;;12.90;54.10;;;;;;5071070;28;20198;-52
2023/06/07 12:17:02;;;;;;;2.45;2.05;;;12.90;54.20;;;;;;5071281;28;20283;-51
2023/06/07 12:19:33;;;;;;;2.45;2.00;;;12.90;54.10;;;;;;5071233;28;20268;-57
2023/06/07 12:22:10;;;;;;;1.90;1.80;;;12.80;54.10;;;;;;5070915;28;20195;-57
2023/06/07 12:24:43;;;;;;;2.10;1.90;;;12.80;54.00;;;;;;5070450;28;20288;-57
2023/06/07 12:27:16;;;;;;;2.22;1.67;;;12.80;54.10;;;;;;5078210;28;20198;-57
2023/06/07 12:29:48;;;;;;;1.70;1.60;;;12.80;54.10;;;;;;5072878;28;20202;-55
2023/06/07 12:32:25;;;;;;;2.45;1.77;;;12.80;54.10;;;;;;5071115;28;20303;-55
2023/06/07 12:35:01;;;;;;;1.88;1.63;;;12.80;54.10;;;;;;5071207;28;20222;-56
2023/06/07 12:37:36;;;;;;;2.15;1.60;;;12.80;54.10;;;;;;5074424;28;20221;-57
2023/06/07 12:40:08;;;;;;;2.15;1.95;;;12.80;54.10;;;;;;5073926;28;20194;-54
2023/06/07 12:42:40;;;;;;;1.90;1.70;;;12.80;54.10;;;;;;5074453;28;20235;-54
2023/06/07 12:45:12;;;;;;;1.60;1.50;;;12.80;54.20;;;;;;5074327;28;20215;-53
2023/06/07 12:47:42;;;;;;;2.10;1.90;;;12.70;54.10;;;;;;5074063;28;20281;-55
2023/06/07 12:50:13;;;;;;;2.33;1.70;;;12.70;54.10;;;;;;5073993;28;20199;-48
2023/06/07 12:52:46;;;;;;;2.05;1.50;;;12.70;54.10;;;;;;5073795;28;20195;-45
2023/06/07 12:55:17;;;;;;;2.03;1.60;;;12.70;54.10;;;;;;5073788;28;20705;-52
2023/06/07 12:57:48;;;;;;;1.95;1.60;;;12.70;54.10;;;;;;5085941;28;20226;-48
2023/06/07 13:00:19;;;;;;;2.03;1.80;;;12.70;54.10;;;;;;5093115;28;20198;-47
2023/06/07 13:02:50;;;;;;;2.20;1.60;;;12.70;54.10;;;;;;5093509;28;20201;-49
2023/06/07 13:05:21;;;;;;;2.05;1.60;;;12.70;54.10;;;;;;5093869;28;20214;-46
2023/06/07 13:07:53;;;;;;;2.20;1.73;;;12.70;54.10;;;;;;5094519;28;20669;-46
2023/06/07 13:10:24;;;;;;;2.33;1.63;;;12.70;54.10;;;;;;5094425;28;20194;-46
2023/06/07 13:12:55;;;;;;;2.30;1.75;;;12.60;54.10;;;;;;5092941;28;20284;-48
2023/06/07 13:15:26;;;;;;;1.95;1.73;;;12.60;54.10;;;;;;5093852;28;20279;-50